createdAt,value
2023-03-22T00:00:16.454Z,17.6
2023-03-22T00:10:15.967Z,17.7
2023-03-22T00:20:15.528Z,17.6
2023-03-22T00:30:15.729Z,17.5
2023-03-22T00:40:18.167Z,18
2023-03-22T00:50:16.581Z,18.1
2023-03-22T01:00:16.658Z,17.6
2023-03-22T01:10:17.011Z,17.5
2023-03-22T01:20:16.669Z,17.4
2023-03-22T01:30:17.495Z,17.5
2023-03-22T01:40:17.642Z,18
2023-03-22T01:50:17.784Z,18
2023-03-22T02:00:17.797Z,17.4
2023-03-22T02:10:17.501Z,17.4
2023-03-22T02:20:18.553Z,17.4
2023-03-22T02:30:19.042Z,17.5
2023-03-22T02:40:19.353Z,17.3
2023-03-22T02:50:17.999Z,17.4
2023-03-22T03:10:09.002Z,17.4
2023-03-22T03:20:09.260Z,17.3
2023-03-22T03:30:09.506Z,17.3
2023-03-22T03:40:09.441Z,17.7
2023-03-22T03:50:09.646Z,17.3
2023-03-22T04:00:09.844Z,17.8
2023-03-22T04:10:12.154Z,17.3
2023-03-22T04:20:12.590Z,17.3
2023-03-22T04:30:13.157Z,17.3
2023-03-22T04:40:13.467Z,17.4
2023-03-22T04:50:14.345Z,17.4
2023-03-22T05:00:14.336Z,17.3
2023-03-22T05:10:14.309Z,17.3
2023-03-22T05:20:14.494Z,17.4
2023-03-22T05:30:15.292Z,17.6
2023-03-22T05:40:15.928Z,17.6
2023-03-22T05:50:15.849Z,17.3
2023-03-22T06:00:15.523Z,17.3
2023-03-22T06:10:15.605Z,17.3
2023-03-22T06:20:14.499Z,17.3
2023-03-22T06:30:14.575Z,17.4
2023-03-22T06:40:14.602Z,17.3
2023-03-22T06:50:15.936Z,17.4
2023-03-22T07:00:16.725Z,17.7
2023-03-22T07:10:15.678Z,17.4
2023-03-22T07:20:15.869Z,17.4
2023-03-22T07:30:15.315Z,17.5
2023-03-22T07:40:15.669Z,17.4
2023-03-22T07:50:15.457Z,17.4
2023-03-22T08:00:16.560Z,17.5
2023-03-22T08:10:16.268Z,17.4
2023-03-22T08:20:15.795Z,17.5
2023-03-22T08:30:15.427Z,17.5
2023-03-22T08:40:15.924Z,17.7
2023-03-22T08:50:16.274Z,17.6
2023-03-22T09:10:07.519Z,18
2023-03-22T09:20:12.672Z,17.5
2023-03-22T09:30:09.092Z,17.5
2023-03-22T09:40:09.217Z,17.5
2023-03-22T09:50:10.622Z,18.2
2023-03-22T10:00:10.421Z,17.6
2023-03-22T10:10:11.547Z,17.5
2023-03-22T10:20:13.991Z,17.6
2023-03-22T10:30:15.104Z,17.6
2023-03-22T10:40:15.972Z,17.9
2023-03-22T10:50:16.332Z,17.6
2023-03-22T11:00:17.812Z,18.2
2023-03-22T11:10:17.388Z,17.6
2023-03-22T11:20:17.258Z,18.1
2023-03-22T11:30:17.217Z,17.7
2023-03-22T11:40:17.488Z,17.7
2023-03-22T11:50:18.340Z,18.1
2023-03-22T12:00:17.945Z,17.7
2023-03-22T12:10:18.556Z,17.6
2023-03-22T12:20:19.229Z,17.8
2023-03-22T12:30:20.076Z,18.2
2023-03-22T12:40:20.660Z,17.9
2023-03-22T12:50:23.869Z,17.6
2023-03-22T13:00:24.972Z,17.7
2023-03-22T13:10:25.329Z,18.1
2023-03-22T13:20:25.018Z,17.9
2023-03-22T13:30:25.318Z,17.9
2023-03-22T13:40:25.257Z,17.8
2023-03-22T13:50:26.019Z,18.1
2023-03-22T14:00:26.106Z,17.9
2023-03-22T14:10:26.100Z,17.9
2023-03-22T14:20:25.889Z,17.8
2023-03-22T14:50:25.213Z,17.9
2023-03-22T15:10:07.034Z,18
2023-03-22T15:20:07.653Z,18.3
2023-03-22T15:30:07.516Z,18.1
2023-03-22T15:40:07.914Z,18.1
2023-03-22T15:50:08.079Z,17.9
2023-03-22T16:00:08.642Z,18.1
2023-03-22T16:10:10.127Z,18
2023-03-22T16:20:11.664Z,17.9
2023-03-22T16:30:13.403Z,17.8
2023-03-22T16:40:13.877Z,17.8
2023-03-22T16:50:15.543Z,17.8
2023-03-22T17:00:16.112Z,17.7
2023-03-22T17:10:16.449Z,17.6
2023-03-22T17:20:17.189Z,18.2
2023-03-22T17:30:17.493Z,17.8
2023-03-22T17:40:31.672Z,17.7
2023-03-22T17:50:18.340Z,17.6
2023-03-22T18:00:18.397Z,17.6
2023-03-22T18:10:18.787Z,17.4
2023-03-22T18:20:29.416Z,17.4
2023-03-22T18:30:19.869Z,18
2023-03-22T18:40:54.368Z,17.8
2023-03-22T18:50:21.485Z,17.4
2023-03-22T19:00:21.343Z,17.3
2023-03-22T19:10:21.876Z,17.3
2023-03-22T19:20:21.681Z,17.4
2023-03-22T19:30:21.737Z,17.3
2023-03-22T19:41:15.281Z,17.3
2023-03-22T19:50:26.632Z,17.2
2023-03-22T20:00:44.800Z,17.2
2023-03-22T20:10:26.484Z,17.2
2023-03-22T20:20:26.841Z,17.1
2023-03-22T20:30:26.702Z,17.1
2023-03-22T20:40:26.460Z,17.1
2023-03-22T20:50:27.164Z,17.1
2023-03-22T21:10:07.472Z,17.1
2023-03-22T21:20:07.690Z,17.1
2023-03-22T21:30:07.464Z,16.9
2023-03-22T21:40:07.841Z,17.1
2023-03-22T21:50:07.736Z,16.9
2023-03-22T22:00:08.308Z,16.9
2023-03-22T22:10:10.212Z,16.9
2023-03-22T22:20:10.827Z,16.8
2023-03-22T22:30:12.236Z,16.8
2023-03-22T22:40:14.236Z,17.1
2023-03-22T22:50:16.042Z,16.8
2023-03-22T23:00:17.354Z,16.9
2023-03-22T23:10:17.459Z,16.8
2023-03-22T23:20:16.891Z,16.8
2023-03-22T23:30:16.721Z,16.8
2023-03-22T23:40:16.640Z,16.7
2023-03-22T23:50:17.457Z,17.3
